To NAV CANADA Home Page Login to a new session Search on AWWS site Feedback and Comments Disclaimer Vers la page française équivalente Tips FAQ What's new on the site To the Forecasts and Observations / NOTAM section To "File a Flight Plan" website Publications and other links Update of the User's profile FIC Telephone Numbers My Weather Data Folder Route Weather Data Regional Weather Data Local Weather Data To the Forecasts and Observations / NOTAM section
Request Generated 05/01/2016 at 08:03:01 UTC . Weather information available at that time is displayed.

METAR/TAF

LA GRANDE-4/QC    (show WxCam)

METAR CYAH 010800Z AUTO 00000KT 9SM OVC120 M01/M02 A3031 RMK SLP281=
METAR CYAH 010700Z AUTO 00000KT 9SM OVC110 M01/M03 A3031 RMK SLP282=
METAR CYAH 010600Z AUTO 00000KT 9SM OVC110 M01/M03 A3031 RMK SLP284=

*** REMARK        : Forecast period has ended; this was the last TAF issued
*** REMARQUE : La période de prévision est échue; ceci était le dernier TAF qui a été émis
TAF AMD CYAH 301922Z 3019/3021 32007KT P6SM BKN060 TEMPO 3019/3021
SCT060
RMK FCST BASED ON AUTO OBS. NXT FCST WILL BE ISSUED AT 011045Z=
Your time UTC time
Weather data provided by Environment Canada and NAV CANADA